METAR AND TAF INFORMATION
METAR FOR LKPR
ADDS - METARS form results

(1505 UTC 26 February 2020)
Data provider http://aviationweather.gov/metar/data/
 
METAR text: LKPR 261504Z 26020G30KT 8000 -SHSN FEW020TCU BKN036 02/M01 Q0996 RMK REG QNH 0993
Conditions at: LKPR (PRAGUE/RUZYNE , CZ) observed 1504 UTC 26 February 2020
Temperature: 2.0°C (36°F)
Dewpoint: -1.0°C (30°F) [RH = 80%]
Pressure (altimeter): 29.41 inches Hg (996.0 mb)
Winds: from the W (260 degrees) at 23 MPH (20 knots; 10.3 m/s)
gusting to 34 MPH (30 knots; 15.4 m/s)
Visibility: 5 miles ( 8 km)
Ceiling: 3600 feet AGL
Clouds: few clouds at 2000 feet AGL
broken clouds at 3600 feet AGL
Weather: -SHSN  (light snow showers)

METAR text: LKPR 261500Z 26020KT 7000 SHSN FEW025TCU BKN040 04/M03 Q0996 TEMPO 4000
Conditions at: LKPR (PRAGUE/RUZYNE , CZ) observed 1500 UTC 26 February 2020
Temperature: 4.0°C (39°F)
Dewpoint: -3.0°C (27°F) [RH = 60%]
Pressure (altimeter): 29.41 inches Hg (996.0 mb)
Winds: from the W (260 degrees) at 23 MPH (20 knots; 10.3 m/s)
Visibility: 4 miles ( 7 km)
Ceiling: 4000 feet AGL
Clouds: few clouds at 2500 feet AGL
broken clouds at 4000 feet AGL
Weather: SHSN  (snow showers)

METAR text: LKPR 261450Z 26020KT 9999 -SHSNRA FEW025 BKN043 05/M03 Q0995 RMK REG QNH 0991
Conditions at: LKPR (PRAGUE/RUZYNE , CZ) observed 1450 UTC 26 February 2020
Temperature: 5.0°C (41°F)
Dewpoint: -3.0°C (27°F) [RH = 56%]
Pressure (altimeter): 29.38 inches Hg (995.0 mb)
Winds: from the W (260 degrees) at 23 MPH (20 knots; 10.3 m/s)
Visibility: 6 or more miles (10+ km)
Ceiling: 4300 feet AGL
Clouds: few clouds at 2500 feet AGL
broken clouds at 4300 feet AGL
Weather: -SHSN -SHRA  (light snow showers, light rain showers)

METAR text: LKPR 261430Z 24021KT 9999 FEW040 05/M03 Q0995 TEMPO 7000 -SHSNRA BKN033
Conditions at: LKPR (PRAGUE/RUZYNE , CZ) observed 1430 UTC 26 February 2020
Temperature: 5.0°C (41°F)
Dewpoint: -3.0°C (27°F) [RH = 56%]
Pressure (altimeter): 29.38 inches Hg (995.0 mb)
Winds: from the WSW (240 degrees) at 24 MPH (21 knots; 10.8 m/s)
Visibility: 6 or more miles (10+ km)
Ceiling: at least 12,000 feet AGL
Clouds: few clouds at 4000 feet AGL
Weather: no significant weather observed at this time

Forecast for: LKPR (PRAGUE/RUZYNE , CZ)
Text: TAF LKPR 261100Z 2612/2718 23012KT 9999 SCT036
Forecast period: 1200 UTC 26 February 2020 to 1600 UTC 27 February 2020
Forecast type: FROM: standard forecast or significant change
Winds: from the SW (230 degrees) at 14 MPH (12 knots; 6.2 m/s)
Visibility: 6 or more miles 10+ km)
Ceiling: at least 12,000 feet AGL
Clouds: scattered clouds at 3600 feet AGL
Weather: no significant weather forecast for this period
Text: TEMPO 2612/2620 24014G28KT -SHRA BKN017
Forecast period: 1200 to 2000 UTC 26 February 2020
Forecast type: TEMPORARY: The following changes expected for less than half the time period
Winds: from the WSW (240 degrees) at 16 MPH (14 knots; 7.2 m/s)
gusting to 32 MPH (28 knots; 14.4 m/s)
Visibility: missing
Ceiling: 1700 feet AGL
Clouds: broken clouds at 1700 feet AGL
Weather: -SHRA  (light rain showers)
Text: PROB30
Forecast period: 1200 to 2000 UTC 26 February 2020
Forecast type: TEMPORARY: The following changes expected for less than half the time period
Visibility: 2.49 miles (4.01 km)
Ceiling: 1200 feet AGL
Clouds: scattered clouds at 800 feet AGL
broken clouds at 1200 feet AGL
Weather: SHRA SHSN  (rain showers, snow showers)
Text: TEMPO 2612/2620 4000 SHRASN SCT008TCU BKN012
Forecast period: 2000 UTC 26 February 2020 to 1500 UTC 27 February 2020
Forecast type: TEMPORARY: The following changes expected for less than half the time period
Winds: from the W (270 degrees) at 16 MPH (14 knots; 7.2 m/s)
gusting to 28 MPH (24 knots; 12.3 m/s)
Visibility: 2.49 miles (4.01 km)
Ceiling: 1200 feet AGL
Clouds: broken clouds at 1200 feet AGL
Weather: -SHSN  (light snow showers)
Text: TEMPO 2620/2715 27014G24KT 4000 -SHSN BKN012
Forecast period: 1600 to 1800 UTC 27 February 2020
Forecast type: BECOMING: Conditions expected to become as follows by 1800 UTC 27 February 2020
Winds: from the SE (140 degrees) at 12 MPH (10 knots; 5.1 m/s)
Visibility: 6 or more miles 10+ km)
Ceiling: at least 12,000 feet AGL
Clouds: scattered clouds at 3600 feet AGL
Weather: no significant weather forecast for this period

 AIRPORT MAP

 RUNWAY INFORMATION
Runway 04 Runway length 6955 ft Runway width 197 ft
Runway elevation 1247 ft Runway displaced threshold 0 ft Runway heading 37
Runway 22 Runway length 6955 ft Runway width 197 ft
Runway elevation 1174 ft Runway displaced threshold 0 ft Runway heading 217
Runway 06 Runway length 12189 ft Runway width 148 ft
Runway elevation 1202 ft Runway displaced threshold 0 ft Runway heading 65
Runway 24 Runway length 12189 ft Runway width 148 ft
Runway elevation 1158 ft Runway displaced threshold 0 ft Runway heading 245
Runway 13 Runway length 10663 ft Runway width 148 ft
Runway elevation 1160 ft Runway displaced threshold 0 ft Runway heading 127
Runway 31 Runway length 10663 ft Runway width 148 ft
Runway elevation 1232 ft Runway displaced threshold 0 ft Runway heading 307

 AIRPORT FREQUENCIES
Type APP Name PRAHA APP Frequency 120.525 MHZ
Type ATIS Name ATIS Frequency 122.15 MHZ
Type CLD Name CLNC DEL Frequency 120.05 MHZ
Type GND Name GND Frequency 121.9 MHZ
Type INFO Name INFO Frequency 118.3 MHZ
Type RDR Name RADAR Frequency 119 MHZ
Type TWR Name TWR Frequency 118.1 MHZ

 AIRPORT NEAR NAVIGATION AIDS
Type VOR-DME Name Neratovice Frequency 108600 KHZ
Type VOR-DME Name Praha Frequency 112600 KHZ
Type NDB Name Ruzyne Middle Frequency 307 KHZ
Type NDB Name Ruzyne North Frequency 356 KHZ



Powered by Virtual Airlines Manager [v2.6.2]

DutchAir is a free to use virtual airline